Time;durP1;ratioP1;P1;durP2;ratioP2;P2;SDS_P1;SDS_P2;PMS_P1;PMS_P2;Temp;Humidity;BMP_temperature;BMP_pressure;BME280_temperature;BME280_humidity;BME280_pressure;Samples;Min_cycle;Max_cycle;Signal;HPM_P1;HPM_P2
2023/02/27 00:01:25;;;;;;;1.88;0.10;;;-1.20;99.90;;;;;;4892637;29;20594;-87
2023/02/27 00:04:01;;;;;;;0.43;0.10;;;-1.30;99.90;;;;;;4905083;29;20153;-87
2023/02/27 00:06:39;;;;;;;1.88;0.20;;;-1.30;99.90;;;;;;4911791;29;20024;-87
2023/02/27 00:09:10;;;;;;;1.10;0.00;;;-1.20;99.90;;;;;;4905074;29;20169;-86
2023/02/27 00:11:39;;;;;;;0.90;0.10;;;-1.40;99.90;;;;;;4886628;29;20114;-87
2023/02/27 00:14:11;;;;;;;0.50;0.10;;;-1.40;99.90;;;;;;4895215;29;20099;-87
2023/02/27 00:16:45;;;;;;;1.30;0.10;;;-1.40;99.90;;;;;;4907471;29;20057;-87
2023/02/27 00:19:23;;;;;;;0.77;0.10;;;-1.20;99.90;;;;;;4909942;29;20041;-87
2023/02/27 00:21:53;;;;;;;0.40;0.10;;;-1.40;99.90;;;;;;4889446;29;20036;-86
2023/02/27 00:24:30;;;;;;;;;;;-1.30;99.90;;;;;;4892266;29;20047;-86
2023/02/27 00:27:10;;;;;;;0.93;0.10;;;-1.40;99.90;;;;;;4890965;29;19945;-87
2023/02/27 00:29:49;;;;;;;0.32;0.10;;;-1.40;99.90;;;;;;4889766;29;20037;-87
2023/02/27 00:32:21;;;;;;;1.05;0.10;;;-1.20;99.90;;;;;;4909321;29;20055;-86
2023/02/27 00:34:51;;;;;;;0.80;0.10;;;-1.30;99.90;;;;;;4893475;29;20032;-87
2023/02/27 00:37:39;;;;;;;0.40;0.10;;;-1.40;99.90;;;;;;4893643;29;20543;-87
2023/02/27 00:43:19;;;;;;;0.93;0.10;;;-1.50;99.90;;;;;;4879976;29;20132;-87
2023/02/27 00:45:52;;;;;;;0.73;0.10;;;-1.50;99.90;;;;;;4892506;29;20552;-86
2023/02/27 00:48:26;;;;;;;0.70;0.10;;;-1.50;99.90;;;;;;4896097;29;20064;-87
2023/02/27 00:51:03;;;;;;;1.50;0.10;;;-1.60;99.90;;;;;;4886838;29;20039;-87
2023/02/27 00:53:56;;;;;;;0.93;0.20;;;-1.60;99.90;;;;;;4893130;29;20032;-87
2023/02/27 00:56:27;;;;;;;1.08;0.10;;;-1.70;99.90;;;;;;4889780;29;20048;-86
2023/02/27 00:58:59;;;;;;;0.70;0.10;;;-1.70;99.90;;;;;;4890039;29;20036;-87
2023/02/27 01:01:38;;;;;;;1.48;0.08;;;-1.70;99.90;;;;;;4879758;29;20035;-86
2023/02/27 01:04:21;;;;;;;0.50;0.10;;;-1.80;99.90;;;;;;4887577;29;20036;-87
2023/02/27 01:06:54;;;;;;;0.10;0.00;;;-1.90;99.90;;;;;;4891669;29;20032;-86
2023/02/27 01:09:33;;;;;;;0.38;0.08;;;-1.80;99.90;;;;;;4894404;29;20044;-86
2023/02/27 01:12:06;;;;;;;0.20;0.10;;;-1.90;99.90;;;;;;4893409;29;20537;-87
2023/02/27 01:14:34;;;;;;;0.30;0.00;;;-1.90;99.90;;;;;;4894279;29;20203;-87
2023/02/27 01:17:03;;;;;;;0.70;0.05;;;-2.00;99.90;;;;;;4890568;29;20504;-87
2023/02/27 01:19:37;;;;;;;0.28;0.00;;;-2.10;99.90;;;;;;4895008;29;20081;-87
2023/02/27 01:22:11;;;;;;;0.17;0.00;;;-2.10;99.90;;;;;;4892672;29;20233;-87
2023/02/27 01:24:39;;;;;;;0.17;0.00;;;-1.90;99.90;;;;;;4895305;29;20047;-87
2023/02/27 01:27:16;;;;;;;0.20;0.10;;;-2.10;99.90;;;;;;4890595;29;20044;-87
2023/02/27 01:29:55;;;;;;;0.57;0.10;;;-2.20;99.90;;;;;;4893744;29;20032;-87
2023/02/27 01:32:26;;;;;;;0.57;0.10;;;-2.30;99.90;;;;;;4906942;29;20043;-87
2023/02/27 01:34:59;;;;;;;0.28;0.10;;;-2.40;99.90;;;;;;4893613;29;20035;-87
2023/02/27 01:37:29;;;;;;;0.40;0.10;;;-2.40;99.90;;;;;;4892994;29;20036;-87
2023/02/27 01:40:07;;;;;;;0.20;0.00;;;-2.20;99.90;;;;;;4888903;29;20047;-87
2023/02/27 01:42:35;;;;;;;0.45;0.03;;;-2.30;99.90;;;;;;4904476;29;20104;-87
2023/02/27 01:45:38;;;;;;;0.52;0.00;;;-2.40;99.90;;;;;;4890830;29;20037;-86
2023/02/27 01:48:25;;;;;;;0.85;0.10;;;-2.40;99.90;;;;;;4892226;29;20067;-87
2023/02/27 01:51:06;;;;;;;0.25;0.00;;;-2.40;99.90;;;;;;4889289;29;20107;-87
2023/02/27 01:53:38;;;;;;;0.30;0.00;;;-2.30;99.90;;;;;;4891186;29;20048;-88
2023/02/27 01:56:28;;;;;;;0.30;0.10;;;-2.40;99.90;;;;;;4908868;29;20276;-87
2023/02/27 01:59:11;;;;;;;0.57;0.10;;;-2.40;99.90;;;;;;4877401;29;20045;-86
2023/02/27 02:01:41;;;;;;;0.65;0.10;;;-2.50;99.90;;;;;;4893710;29;20047;-87
2023/02/27 02:04:45;;;;;;;1.15;0.10;;;-2.60;99.90;;;;;;4892310;29;20036;-86
2023/02/27 02:07:25;;;;;;;0.47;0.10;;;-2.60;99.90;;;;;;4877955;29;20063;-87
2023/02/27 02:09:59;;;;;;;0.85;0.10;;;-2.70;99.90;;;;;;4891333;29;20085;-87
2023/02/27 02:12:47;;;;;;;;;;;;;;;;;;;;;
2023/02/27 02:15:21;;;;;;;0.32;0.10;;;-2.80;99.90;;;;;;4911453;29;20098;-87
2023/02/27 02:18:21;;;;;;;0.30;0.10;;;-2.90;99.90;;;;;;4888844;29;20032;-86
2023/02/27 02:21:03;;;;;;;0.30;0.00;;;-2.90;99.90;;;;;;4890812;29;20043;-86
2023/02/27 02:24:06;;;;;;;0.40;0.10;;;-2.90;99.90;;;;;;4892090;29;20033;-86
2023/02/27 02:26:51;;;;;;;0.52;0.10;;;-2.90;99.90;;;;;;4906230;29;20128;-85
2023/02/27 02:30:06;;;;;;;1.90;0.08;;;-3.00;99.90;;;;;;4890248;29;20032;-86
2023/02/27 02:32:54;;;;;;;0.57;0.10;;;-2.80;99.90;;;;;;4891879;29;20052;-85
2023/02/27 02:35:46;;;;;;;0.60;0.05;;;-2.80;99.90;;;;;;4892126;29;20025;-86
2023/02/27 02:38:31;;;;;;;0.10;0.00;;;-2.90;99.90;;;;;;4905139;29;20377;-86
2023/02/27 02:41:22;;;;;;;0.80;0.10;;;-2.70;99.90;;;;;;4909088;29;20056;-85
2023/02/27 02:44:05;;;;;;;0.52;0.10;;;-2.80;99.90;;;;;;4890369;29;20025;-86
2023/02/27 02:47:00;;;;;;;0.50;0.10;;;-2.80;99.90;;;;;;4906681;29;20052;-86
2023/02/27 02:49:38;;;;;;;0.30;0.00;;;-2.70;99.90;;;;;;4891013;29;20103;-84
2023/02/27 02:52:19;;;;;;;0.25;0.08;;;-2.80;99.90;;;;;;4876411;29;20032;-85
2023/02/27 02:55:28;;;;;;;0.75;0.00;;;-2.80;99.90;;;;;;4892229;29;20021;-84
2023/02/27 02:58:21;;;;;;;0.47;0.10;;;-2.80;99.90;;;;;;4905172;29;20135;-85
2023/02/27 03:01:26;;;;;;;0.93;0.10;;;-2.70;99.90;;;;;;4907291;29;20028;-84
2023/02/27 03:04:05;;;;;;;0.52;0.10;;;-2.70;99.90;;;;;;4890566;29;20056;-86
2023/02/27 03:06:47;;;;;;;2.10;0.05;;;-2.70;99.90;;;;;;4907824;29;20024;-87
2023/02/27 03:09:33;;;;;;;0.57;0.10;;;-2.70;99.90;;;;;;4906850;29;20040;-84
2023/02/27 03:12:04;;;;;;;0.82;0.17;;;-2.80;99.90;;;;;;4888846;29;20068;-84
2023/02/27 03:14:54;;;;;;;1.63;0.10;;;-2.90;99.90;;;;;;4886937;29;20672;-85
2023/02/27 03:17:50;;;;;;;0.55;0.10;;;-2.90;99.90;;;;;;4890349;29;20035;-85
2023/02/27 03:20:25;;;;;;;1.20;0.10;;;-3.00;99.90;;;;;;4892637;29;20059;-87
2023/02/27 03:22:57;;;;;;;0.30;0.10;;;-3.00;99.90;;;;;;4883526;29;20477;-85
2023/02/27 03:25:28;;;;;;;1.17;0.00;;;-3.10;99.90;;;;;;4889400;29;20052;-85
2023/02/27 03:28:08;;;;;;;0.82;0.10;;;-2.90;99.90;;;;;;4889862;29;20071;-84
2023/02/27 03:30:55;;;;;;;0.40;0.00;;;-3.00;99.90;;;;;;4888698;29;20091;-84
2023/02/27 03:33:26;;;;;;;0.73;0.10;;;-3.20;99.90;;;;;;4907141;29;20504;-85
2023/02/27 03:36:07;;;;;;;0.38;0.00;;;-3.00;99.90;;;;;;4889641;29;20039;-86
2023/02/27 03:38:37;;;;;;;1.25;0.10;;;-3.00;99.90;;;;;;4890052;29;20083;-84
2023/02/27 03:41:31;;;;;;;1.05;0.10;;;-2.80;99.90;;;;;;4908229;29;20033;-84
2023/02/27 03:44:28;;;;;;;0.35;0.10;;;-3.20;99.90;;;;;;4890336;29;20063;-87
2023/02/27 03:46:56;;;;;;;0.10;0.00;;;-3.00;99.90;;;;;;4889813;29;20192;-84
2023/02/27 03:49:25;;;;;;;0.30;0.10;;;-3.20;99.90;;;;;;4889153;29;20076;-84
2023/02/27 03:51:55;;;;;;;0.50;0.10;;;-3.10;99.90;;;;;;4889795;29;20045;-84
2023/02/27 03:54:26;;;;;;;;;;;-3.30;99.90;;;;;;4890626;29;20036;-85
2023/02/27 03:57:07;;;;;;;2.10;0.00;;;-3.10;99.90;;;;;;4894084;29;19928;-84
2023/02/27 03:59:39;;;;;;;0.55;0.10;;;-3.10;99.90;;;;;;4910374;29;20037;-84
2023/02/27 04:02:10;;;;;;;0.38;0.10;;;-3.20;99.90;;;;;;4893890;29;20461;-84
2023/02/27 04:04:40;;;;;;;0.85;0.10;;;-3.20;99.90;;;;;;4896043;29;20173;-84
2023/02/27 04:08:12;;;;;;;0.30;0.03;;;-2.90;99.90;;;;;;4885840;29;20485;-84
2023/02/27 04:11:15;;;;;;;0.75;0.15;;;-3.20;99.90;;;;;;4890819;29;20116;-85
2023/02/27 04:14:22;;;;;;;1.08;0.00;;;-3.20;99.90;;;;;;4892001;29;20056;-84
2023/02/27 04:17:21;;;;;;;0.73;0.10;;;-3.30;99.90;;;;;;4894262;29;20123;-84
2023/02/27 04:20:12;;;;;;;0.50;0.10;;;-3.20;99.90;;;;;;4893074;29;20036;-84
2023/02/27 04:23:02;;;;;;;0.20;0.10;;;-3.30;99.90;;;;;;4895218;29;20040;-87
2023/02/27 04:25:57;;;;;;;0.50;0.00;;;-3.30;99.90;;;;;;4893163;29;20276;-84
2023/02/27 04:28:59;;;;;;;0.28;0.05;;;-3.30;99.90;;;;;;4894790;29;20035;-84
2023/02/27 04:31:35;;;;;;;0.60;0.05;;;-3.40;99.90;;;;;;4892569;29;20033;-84
2023/02/27 04:34:21;;;;;;;1.55;0.10;;;-3.20;99.90;;;;;;4892362;29;20025;-84
2023/02/27 04:37:00;;;;;;;0.65;0.10;;;-3.20;99.90;;;;;;4892244;29;20033;-84
2023/02/27 04:39:52;;;;;;;0.28;0.03;;;-3.30;99.90;;;;;;4892431;29;20044;-85
2023/02/27 04:42:36;;;;;;;0.93;0.00;;;-3.20;99.90;;;;;;4892148;29;20028;-83
2023/02/27 04:45:08;;;;;;;0.40;0.10;;;-3.20;99.90;;;;;;4891860;29;20084;-83
2023/02/27 04:48:16;;;;;;;0.93;0.10;;;-3.30;99.90;;;;;;4908444;29;20040;-83
2023/02/27 04:50:49;;;;;;;1.13;0.10;;;-3.40;99.90;;;;;;4858593;29;20047;-83
2023/02/27 04:53:27;;;;;;;1.80;0.10;;;-3.20;99.90;;;;;;4874020;29;20407;-83
2023/02/27 04:56:07;;;;;;;1.48;0.10;;;-3.00;99.90;;;;;;4858226;29;20033;-87
2023/02/27 04:58:39;;;;;;;1.13;0.10;;;-3.20;99.90;;;;;;4893137;29;20040;-83
2023/02/27 05:01:22;;;;;;;0.57;0.10;;;-3.20;99.90;;;;;;4883448;29;20033;-82
2023/02/27 05:03:57;;;;;;;0.30;0.10;;;-3.20;99.90;;;;;;4878520;29;20036;-83
2023/02/27 05:06:33;;;;;;;0.93;0.10;;;-3.50;99.90;;;;;;4890946;29;20405;-87
2023/02/27 05:09:08;;;;;;;1.05;0.10;;;-3.30;99.90;;;;;;4892868;29;20035;-83
2023/02/27 05:11:51;;;;;;;0.90;0.10;;;-3.40;99.90;;;;;;4878181;29;20481;-84
2023/02/27 05:14:30;;;;;;;1.52;0.00;;;-3.50;99.90;;;;;;4890506;29;20040;-85
2023/02/27 05:17:11;;;;;;;0.77;0.10;;;-3.50;99.90;;;;;;4892528;29;20079;-85
2023/02/27 05:19:52;;;;;;;0.30;0.05;;;-3.70;99.90;;;;;;4877580;29;20089;-85
2023/02/27 05:22:42;;;;;;;1.85;0.10;;;-3.50;99.90;;;;;;4892939;29;20568;-84
2023/02/27 05:25:29;;;;;;;1.00;0.10;;;-3.40;99.90;;;;;;4893285;29;20477;-84
2023/02/27 05:28:15;;;;;;;0.40;0.10;;;-3.50;99.90;;;;;;4905941;29;20044;-84
2023/02/27 05:30:51;;;;;;;2.15;0.10;;;-3.50;99.90;;;;;;4889024;29;20028;-84
2023/02/27 05:33:47;;;;;;;1.02;0.00;;;-3.40;99.90;;;;;;4889955;29;20032;-83
2023/02/27 05:36:23;;;;;;;0.40;0.08;;;-3.60;99.90;;;;;;4891221;29;20036;-83
2023/02/27 05:39:03;;;;;;;0.80;0.20;;;-3.50;99.90;;;;;;4879276;29;20036;-83
2023/02/27 05:42:06;;;;;;;0.35;0.10;;;-3.30;99.90;;;;;;4893899;29;20024;-83
2023/02/27 05:44:43;;;;;;;2.15;0.10;;;-3.50;99.90;;;;;;4891934;29;20028;-83
2023/02/27 05:47:18;;;;;;;1.08;0.10;;;-3.60;99.90;;;;;;4892314;29;20092;-84
2023/02/27 05:50:02;;;;;;;0.45;0.10;;;-3.60;99.90;;;;;;4908078;29;20347;-85
2023/02/27 05:52:34;;;;;;;0.90;0.10;;;-3.60;99.90;;;;;;4891872;29;20060;-83
2023/02/27 05:55:04;;;;;;;0.75;0.10;;;-3.60;99.90;;;;;;4890591;29;20021;-83
2023/02/27 05:57:43;;;;;;;0.68;0.10;;;-3.60;99.90;;;;;;4891214;29;20053;-83
2023/02/27 06:00:30;;;;;;;0.57;0.10;;;-3.70;99.90;;;;;;4889402;29;20488;-86
2023/02/27 06:03:00;;;;;;;1.52;0.10;;;-3.40;99.90;;;;;;4905486;29;20433;-83
2023/02/27 06:05:31;;;;;;;0.30;0.03;;;-3.60;99.90;;;;;;4890135;29;20082;-83
2023/02/27 06:08:01;;;;;;;1.08;0.10;;;-3.40;99.90;;;;;;4906190;29;20084;-83
2023/02/27 06:10:31;;;;;;;0.70;0.10;;;-3.60;99.90;;;;;;4892056;29;20409;-83
2023/02/27 06:13:04;;;;;;;0.50;0.10;;;-3.60;99.90;;;;;;4892900;29;20052;-83
2023/02/27 06:15:31;;;;;;;0.77;0.10;;;-3.60;99.90;;;;;;4890436;29;20033;-84
2023/02/27 06:17:57;;;;;;;0.45;0.10;;;-3.50;99.90;;;;;;4891056;29;20211;-86
2023/02/27 06:20:24;;;;;;;0.22;0.10;;;-3.40;99.90;;;;;;4908455;29;20029;-84
2023/02/27 06:22:50;;;;;;;1.48;0.10;;;-3.40;99.90;;;;;;4890520;29;20043;-84
2023/02/27 06:25:15;;;;;;;0.60;0.10;;;-3.40;99.90;;;;;;4893447;29;20028;-83
2023/02/27 06:27:41;;;;;;;1.52;0.10;;;-3.50;99.90;;;;;;4890677;29;20040;-84
2023/02/27 06:30:07;;;;;;;0.90;0.05;;;-3.40;99.90;;;;;;4889327;29;20119;-83
2023/02/27 06:32:33;;;;;;;0.40;0.10;;;-3.40;99.90;;;;;;4887974;29;20044;-83
2023/02/27 06:34:59;;;;;;;0.45;0.10;;;-3.50;99.90;;;;;;4890002;29;20028;-84
2023/02/27 06:37:25;;;;;;;1.02;0.10;;;-3.50;99.90;;;;;;4889552;29;20445;-84
2023/02/27 06:39:50;;;;;;;0.80;0.10;;;-3.50;99.90;;;;;;4892440;29;20123;-84
2023/02/27 06:42:17;;;;;;;0.90;0.10;;;-3.50;99.90;;;;;;4889129;29;20127;-84
2023/02/27 06:44:43;;;;;;;0.60;0.10;;;-3.50;99.90;;;;;;4889626;29;20056;-83
2023/02/27 06:47:08;;;;;;;2.00;0.20;;;-3.50;99.90;;;;;;4892310;29;20460;-84
2023/02/27 06:49:34;;;;;;;0.52;0.10;;;-3.40;99.90;;;;;;4888630;29;20080;-84
2023/02/27 06:52:00;;;;;;;0.47;0.10;;;-3.30;99.90;;;;;;4892312;29;20037;-83
2023/02/27 06:54:25;;;;;;;0.35;0.20;;;-3.30;99.90;;;;;;4892137;29;20432;-83
2023/02/27 06:56:51;;;;;;;1.77;0.20;;;-3.20;99.90;;;;;;4892702;29;20143;-84
2023/02/27 06:59:17;;;;;;;0.93;0.20;;;-3.10;99.90;;;;;;4891067;29;20611;-83
2023/02/27 07:01:43;;;;;;;0.90;0.30;;;-3.20;99.90;;;;;;4892276;29;20571;-84
2023/02/27 07:04:13;;;;;;;1.15;0.28;;;-3.20;99.90;;;;;;4892003;29;20196;-83
2023/02/27 07:06:39;;;;;;;1.00;0.20;;;-3.20;99.90;;;;;;4889871;29;20044;-84
2023/02/27 07:09:05;;;;;;;2.35;0.30;;;-3.20;99.90;;;;;;4890602;29;20032;-85
2023/02/27 07:11:30;;;;;;;1.38;0.22;;;-3.20;99.90;;;;;;4892131;29;20033;-82
2023/02/27 07:13:56;;;;;;;2.45;0.40;;;-3.20;99.90;;;;;;4891128;29;20025;-84
2023/02/27 07:16:22;;;;;;;1.40;0.30;;;-3.20;99.90;;;;;;4892010;29;20520;-85
2023/02/27 07:18:48;;;;;;;0.77;0.10;;;-3.10;99.90;;;;;;4907863;29;20044;-86
2023/02/27 07:21:16;;;;;;;0.55;0.17;;;-3.10;99.90;;;;;;4888144;29;20025;-86
2023/02/27 07:23:42;;;;;;;0.47;0.17;;;-3.10;99.90;;;;;;4886212;29;20417;-82
2023/02/27 07:26:08;;;;;;;0.50;0.17;;;-2.90;99.90;;;;;;4902798;29;20048;-82
2023/02/27 07:28:34;;;;;;;0.52;0.10;;;-3.00;99.90;;;;;;4886223;29;20116;-82
2023/02/27 07:31:00;;;;;;;0.45;0.10;;;-2.80;99.90;;;;;;4892776;29;20084;-85
2023/02/27 07:33:26;;;;;;;0.82;0.20;;;-2.90;99.90;;;;;;4894737;29;20162;-82
2023/02/27 07:35:52;;;;;;;0.40;0.10;;;-2.70;99.90;;;;;;4895746;29;20139;-82
2023/02/27 07:38:18;;;;;;;0.80;0.20;;;-2.60;99.90;;;;;;4894110;29;20028;-82
2023/02/27 07:40:47;;;;;;;0.52;0.20;;;-2.70;99.90;;;;;;4893295;29;20089;-83
2023/02/27 07:43:13;;;;;;;0.47;0.15;;;-2.60;99.90;;;;;;4895758;29;20036;-81
2023/02/27 07:45:39;;;;;;;0.55;0.10;;;-2.40;99.90;;;;;;4910833;29;20036;-83
2023/02/27 07:48:05;;;;;;;0.70;0.10;;;-2.30;99.90;;;;;;4910749;29;20105;-82
2023/02/27 07:50:31;;;;;;;1.35;0.20;;;-2.30;99.90;;;;;;4895326;29;20029;-84
2023/02/27 07:52:56;;;;;;;0.90;0.10;;;-2.10;99.90;;;;;;4911313;29;20228;-83
2023/02/27 07:55:22;;;;;;;1.65;0.10;;;-2.20;99.90;;;;;;4892253;29;20071;-83
2023/02/27 07:57:47;;;;;;;0.75;0.20;;;-2.00;99.90;;;;;;4893740;29;20486;-83
2023/02/27 08:00:13;;;;;;;0.75;0.20;;;-2.00;99.90;;;;;;4910324;29;20029;-84
2023/02/27 08:02:39;;;;;;;0.90;0.10;;;-1.90;99.90;;;;;;4896978;29;20041;-82
2023/02/27 08:05:05;;;;;;;0.88;0.15;;;-1.70;99.90;;;;;;4895716;29;20561;-84
2023/02/27 08:07:31;;;;;;;2.50;0.20;;;-1.70;99.90;;;;;;4896497;29;20103;-83
2023/02/27 08:09:57;;;;;;;1.17;0.20;;;-1.70;99.90;;;;;;4910486;29;20168;-84
2023/02/27 08:12:23;;;;;;;0.90;0.20;;;-1.50;99.90;;;;;;4896237;29;20441;-83
2023/02/27 08:14:49;;;;;;;3.90;0.30;;;-1.30;99.90;;;;;;4892089;29;20025;-84
2023/02/27 08:17:15;;;;;;;1.00;0.20;;;-1.30;99.90;;;;;;4894188;29;20059;-85
2023/02/27 08:19:41;;;;;;;1.23;0.20;;;-1.10;99.90;;;;;;4910872;29;20180;-84
2023/02/27 08:22:06;;;;;;;0.90;0.20;;;-1.10;99.90;;;;;;4892372;29;20335;-85
2023/02/27 08:24:32;;;;;;;1.30;0.30;;;-0.80;99.90;;;;;;4910233;29;20499;-85
2023/02/27 08:26:58;;;;;;;1.20;0.30;;;-0.60;99.90;;;;;;4895933;29;20032;-84
2023/02/27 08:29:24;;;;;;;0.82;0.20;;;-0.60;99.90;;;;;;4893465;29;20080;-85
2023/02/27 08:31:50;;;;;;;2.00;0.20;;;-0.30;99.90;;;;;;4895540;29;20045;-85
2023/02/27 08:34:15;;;;;;;1.65;0.28;;;-0.10;99.90;;;;;;4894578;29;20033;-84
2023/02/27 08:36:41;;;;;;;1.13;0.20;;;0.00;99.90;;;;;;4896217;29;20035;-85
2023/02/27 08:39:08;;;;;;;1.73;0.38;;;0.10;99.90;;;;;;4889814;29;20068;-85
2023/02/27 08:41:34;;;;;;;2.17;0.25;;;0.30;99.90;;;;;;4892296;29;20036;-84
2023/02/27 08:44:00;;;;;;;3.22;0.30;;;0.40;99.90;;;;;;4890434;29;20029;-85
2023/02/27 08:46:25;;;;;;;1.75;0.20;;;0.50;99.90;;;;;;4910428;29;20029;-86
2023/02/27 08:48:51;;;;;;;0.85;0.30;;;0.70;99.90;;;;;;4894215;29;20084;-86
2023/02/27 08:51:17;;;;;;;0.60;0.20;;;0.90;99.90;;;;;;4910374;29;20051;-86
2023/02/27 08:53:43;;;;;;;1.65;0.20;;;1.00;99.90;;;;;;4895218;29;20032;-86
2023/02/27 08:56:08;;;;;;;2.00;0.20;;;1.20;99.90;;;;;;4892718;29;20346;-86
2023/02/27 08:58:34;;;;;;;2.58;0.30;;;1.30;99.90;;;;;;4914475;29;20457;-85
2023/02/27 09:01:01;;;;;;;2.45;0.40;;;1.40;99.90;;;;;;4914481;29;20574;-86
2023/02/27 09:03:27;;;;;;;1.88;0.20;;;1.50;99.90;;;;;;4895296;29;20433;-86
2023/02/27 09:05:54;;;;;;;0.90;0.20;;;1.60;99.90;;;;;;4897766;29;20397;-86
2023/02/27 09:08:21;;;;;;;0.60;0.20;;;1.70;99.90;;;;;;4897186;29;20032;-86
2023/02/27 09:10:46;;;;;;;0.80;0.20;;;1.80;99.90;;;;;;4914585;29;20051;-86
2023/02/27 09:13:12;;;;;;;1.15;0.20;;;2.00;99.90;;;;;;4896846;29;20040;-85
2023/02/27 09:15:38;;;;;;;0.57;0.20;;;2.10;99.90;;;;;;4896305;29;20024;-86
2023/02/27 09:18:05;;;;;;;1.85;0.20;;;2.30;99.90;;;;;;4894038;29;20032;-87
2023/02/27 09:20:34;;;;;;;0.47;0.20;;;2.40;99.90;;;;;;4897192;29;20028;-87
2023/02/27 09:23:00;;;;;;;1.30;0.20;;;2.40;99.90;;;;;;4893540;29;20044;-88
2023/02/27 09:25:27;;;;;;;0.60;0.20;;;2.50;99.90;;;;;;4893874;29;20031;-88
2023/02/27 09:27:53;;;;;;;0.88;0.17;;;2.70;99.90;;;;;;4896806;29;20064;-87
2023/02/27 09:30:19;;;;;;;0.90;0.25;;;2.80;99.90;;;;;;4896654;29;20032;-87
2023/02/27 09:32:45;;;;;;;2.78;0.10;;;2.80;99.90;;;;;;4895558;29;20047;-88
2023/02/27 09:35:12;;;;;;;0.80;0.20;;;2.90;99.90;;;;;;4896770;29;20027;-87
2023/02/27 09:37:38;;;;;;;0.85;0.38;;;3.10;99.90;;;;;;4912352;29;20062;-87
2023/02/27 09:40:06;;;;;;;1.25;0.20;;;3.20;99.90;;;;;;4912279;29;20556;-83
2023/02/27 09:42:45;;;;;;;1.95;0.20;;;3.30;99.90;;;;;;4893232;29;20032;-87
2023/02/27 09:45:19;;;;;;;2.40;0.30;;;3.50;99.90;;;;;;4889589;29;20468;-87
2023/02/27 09:47:50;;;;;;;1.13;0.20;;;3.70;99.90;;;;;;4896901;29;20038;-87
2023/02/27 09:50:42;;;;;;;1.15;0.20;;;3.80;99.90;;;;;;4912458;29;20039;-85
2023/02/27 09:53:17;;;;;;;0.85;0.20;;;3.70;99.90;;;;;;4891691;29;20040;-88
2023/02/27 09:55:45;;;;;;;1.70;0.20;;;3.90;99.90;;;;;;4904163;29;20042;-86
2023/02/27 09:58:16;;;;;;;1.52;0.20;;;4.00;99.90;;;;;;4893016;29;20052;-87
2023/02/27 10:00:47;;;;;;;1.00;0.10;;;4.10;99.90;;;;;;4890920;29;20038;-88
2023/02/27 10:03:21;;;;;;;1.15;0.20;;;4.30;99.90;;;;;;4880167;29;20043;-88
2023/02/27 10:06:11;;;;;;;2.58;0.28;;;4.20;99.90;;;;;;4912203;29;20095;-87
2023/02/27 10:08:56;;;;;;;1.10;0.20;;;4.20;99.90;;;;;;4912044;29;20393;-84
2023/02/27 10:11:36;;;;;;;1.85;0.20;;;4.20;99.90;;;;;;4893817;29;20020;-86
2023/02/27 10:14:24;;;;;;;1.92;0.28;;;4.40;99.90;;;;;;4912077;29;20461;-91
2023/02/27 10:16:52;;;;;;;0.70;0.15;;;4.60;99.90;;;;;;4894396;29;20059;-91
2023/02/27 10:19:29;;;;;;;1.50;0.20;;;4.70;99.90;;;;;;4897344;29;20082;-93
2023/02/27 10:21:56;;;;;;;2.97;0.40;;;4.70;99.90;;;;;;4894424;29;20037;-92
2023/02/27 10:24:34;;;;;;;2.10;0.40;;;4.30;99.90;;;;;;4893562;29;20066;-95
2023/02/27 10:27:04;;;;;;;2.03;0.40;;;4.60;99.90;;;;;;4890758;29;20036;-93
2023/02/27 10:29:32;;;;;;;1.55;0.20;;;4.90;99.90;;;;;;4891699;29;20032;-90
2023/02/27 10:32:10;;;;;;;1.73;0.20;;;4.90;99.90;;;;;;4894811;29;20136;-90
2023/02/27 10:34:39;;;;;;;1.02;0.20;;;5.00;99.90;;;;;;4910739;29;20027;-90
2023/02/27 10:37:33;;;;;;;1.15;0.20;;;5.20;99.90;;;;;;4912263;29;20461;-90
2023/02/27 10:40:05;;;;;;;1.92;0.20;;;5.30;99.90;;;;;;4880132;29;20036;-86
2023/02/27 10:42:36;;;;;;;0.80;0.20;;;5.40;99.90;;;;;;4910292;29;20055;-90
2023/02/27 10:45:11;;;;;;;1.13;0.15;;;5.70;99.90;;;;;;4892303;29;20028;-91
2023/02/27 10:47:38;;;;;;;0.50;0.10;;;5.60;99.90;;;;;;4912363;29;20067;-92
2023/02/27 10:50:20;;;;;;;1.90;0.20;;;5.60;99.90;;;;;;4892493;29;20036;-91
2023/02/27 10:52:55;;;;;;;1.00;0.20;;;5.70;99.90;;;;;;4911358;29;20040;-89
2023/02/27 10:55:46;;;;;;;1.25;0.20;;;5.70;99.90;;;;;;4895273;29;20027;-88
2023/02/27 10:58:18;;;;;;;0.63;0.10;;;5.60;99.90;;;;;;4889337;29;20076;-89
2023/02/27 11:00:56;;;;;;;1.70;0.10;;;5.70;99.90;;;;;;4910369;29;20029;-88
2023/02/27 11:03:32;;;;;;;0.80;0.20;;;5.80;99.90;;;;;;4890654;29;20035;-89
2023/02/27 11:06:04;;;;;;;2.08;0.10;;;5.70;99.90;;;;;;4894003;29;20028;-87
2023/02/27 11:08:32;;;;;;;3.05;0.20;;;5.80;99.90;;;;;;4893464;29;20602;-88
2023/02/27 11:11:08;;;;;;;2.85;0.20;;;6.00;99.90;;;;;;4891242;29;20068;-87
2023/02/27 11:13:42;;;;;;;2.15;0.15;;;5.90;99.90;;;;;;4915268;29;20076;-88
2023/02/27 11:16:08;;;;;;;2.72;0.20;;;5.90;99.90;;;;;;4862902;29;20168;-88
2023/02/27 11:18:36;;;;;;;0.70;0.20;;;6.10;99.90;;;;;;4896974;29;20442;-89
2023/02/27 11:21:11;;;;;;;2.33;0.63;;;6.20;99.90;;;;;;4911172;29;20048;-89
2023/02/27 11:23:37;;;;;;;0.60;0.10;;;6.10;99.90;;;;;;4894184;29;20055;-89
2023/02/27 11:26:12;;;;;;;1.63;0.10;;;6.10;99.90;;;;;;4894672;29;20394;-87
2023/02/27 11:28:38;;;;;;;1.35;0.10;;;5.70;99.90;;;;;;4893298;29;20473;-87
2023/02/27 11:31:14;;;;;;;1.40;0.10;;;5.90;99.90;;;;;;4894239;29;20051;-89
2023/02/27 11:33:52;;;;;;;1.60;0.10;;;6.00;99.90;;;;;;4910484;29;20044;-89
2023/02/27 11:36:18;;;;;;;1.85;0.10;;;6.20;99.90;;;;;;4891521;29;20039;-87
2023/02/27 11:38:55;;;;;;;0.57;0.10;;;6.00;99.90;;;;;;4895367;29;20480;-89
2023/02/27 11:41:31;;;;;;;0.73;0.10;;;6.20;99.90;;;;;;4909856;29;20114;-88
2023/02/27 11:43:58;;;;;;;1.85;0.20;;;6.00;99.90;;;;;;4893835;29;20047;-89
2023/02/27 11:46:25;;;;;;;0.40;0.08;;;5.90;99.90;;;;;;4894914;29;20090;-87
2023/02/27 11:48:55;;;;;;;0.68;0.03;;;6.00;99.90;;;;;;4895953;29;20083;-89
2023/02/27 11:51:52;;;;;;;0.52;0.10;;;6.10;99.90;;;;;;4893103;29;20059;-87
2023/02/27 11:54:34;;;;;;;0.70;0.00;;;6.10;99.90;;;;;;4878850;29;20580;-90
2023/02/27 11:57:03;;;;;;;0.85;0.10;;;6.30;99.90;;;;;;4893438;29;20056;-87
2023/02/27 11:59:42;;;;;;;0.95;0.10;;;6.50;99.90;;;;;;4910439;29;20044;-89
2023/02/27 12:02:23;;;;;;;0.73;0.10;;;6.50;99.90;;;;;;4890675;29;20067;-88
2023/02/27 12:05:00;;;;;;;0.75;0.10;;;6.60;99.90;;;;;;4909736;29;20556;-87
2023/02/27 12:07:48;;;;;;;0.70;0.10;;;6.80;99.90;;;;;;4906776;29;20130;-90
2023/02/27 12:10:18;;;;;;;1.33;0.17;;;6.90;99.90;;;;;;4893478;29;20028;-87
2023/02/27 12:12:59;;;;;;;1.83;0.10;;;6.80;99.90;;;;;;4875344;29;20091;-89
2023/02/27 12:15:26;;;;;;;;;;;6.90;99.90;;;;;;4898266;29;20369;-89
2023/02/27 12:18:15;;;;;;;0.50;0.10;;;6.60;99.90;;;;;;4893755;29;19918;-88
2023/02/27 12:20:52;;;;;;;1.52;0.10;;;6.40;99.90;;;;;;4913982;29;20048;-89
2023/02/27 12:23:43;;;;;;;2.17;0.10;;;6.70;99.90;;;;;;4894594;29;20024;-90
2023/02/27 12:26:26;;;;;;;0.55;0.10;;;6.60;99.90;;;;;;4885668;29;20473;-90
2023/02/27 12:28:57;;;;;;;0.90;0.10;;;6.60;99.90;;;;;;4891379;29;20066;-90
2023/02/27 12:31:30;;;;;;;;;;;6.60;99.90;;;;;;4898347;29;20028;-88
2023/02/27 12:34:28;;;;;;;0.85;0.10;;;6.50;99.90;;;;;;4898532;29;19919;-89
2023/02/27 12:37:00;;;;;;;0.85;0.15;;;6.40;99.90;;;;;;4913967;29;20030;-89
2023/02/27 12:39:27;;;;;;;0.32;0.10;;;6.40;99.90;;;;;;4882391;29;20028;-89
2023/02/27 12:41:56;;;;;;;2.30;0.15;;;6.30;99.90;;;;;;4889484;29;20036;-89
2023/02/27 12:44:40;;;;;;;1.13;0.10;;;6.10;99.90;;;;;;4897929;29;20555;-88
2023/02/27 12:47:09;;;;;;;1.45;0.10;;;6.10;99.90;;;;;;4893474;29;20040;-89
2023/02/27 12:50:05;;;;;;;0.57;0.10;;;6.10;99.90;;;;;;4910909;29;20396;-90
2023/02/27 12:52:49;;;;;;;0.70;0.10;;;6.20;99.90;;;;;;4893571;29;20055;-88
2023/02/27 12:55:21;;;;;;;0.65;0.10;;;6.20;99.90;;;;;;4897945;29;20393;-89
2023/02/27 12:57:47;;;;;;;1.70;0.10;;;6.20;99.90;;;;;;4889263;29;20537;-90
2023/02/27 13:00:28;;;;;;;2.03;0.10;;;6.10;99.90;;;;;;4897591;29;20123;-88
2023/02/27 13:03:10;;;;;;;1.95;0.10;;;6.00;99.90;;;;;;4893115;29;20035;-88
2023/02/27 13:05:47;;;;;;;1.33;0.10;;;6.10;99.90;;;;;;4893962;29;20040;-89
2023/02/27 13:08:17;;;;;;;2.00;0.10;;;6.10;99.90;;;;;;4894978;29;20448;-91
2023/02/27 13:11:05;;;;;;;0.75;0.10;;;6.10;99.90;;;;;;4895646;29;20144;-90
2023/02/27 13:13:55;;;;;;;0.95;0.20;;;5.90;99.90;;;;;;4896998;29;20095;-88
2023/02/27 13:16:49;;;;;;;1.30;0.10;;;6.10;99.90;;;;;;4896996;29;20024;-89
2023/02/27 13:19:30;;;;;;;0.50;0.08;;;6.80;99.90;;;;;;4874088;29;20047;-90
2023/02/27 13:22:26;;;;;;;1.23;0.10;;;7.20;99.90;;;;;;4894030;29;20050;-88
2023/02/27 13:24:55;;;;;;;0.82;0.10;;;6.90;99.90;;;;;;4892418;29;20028;-90
2023/02/27 13:27:31;;;;;;;1.02;0.10;;;6.70;99.90;;;;;;4896335;29;20079;-89
2023/02/27 13:30:02;;;;;;;0.68;0.10;;;6.60;99.90;;;;;;4890946;29;20039;-89
2023/02/27 13:32:40;;;;;;;0.85;0.20;;;6.40;99.90;;;;;;4908703;29;20036;-91
2023/02/27 13:35:20;;;;;;;1.75;0.20;;;6.30;99.90;;;;;;4894937;29;20032;-91
2023/02/27 13:37:56;;;;;;;0.73;0.10;;;6.10;99.90;;;;;;4911867;29;20072;-91
2023/02/27 13:40:31;;;;;;;0.95;0.10;;;6.00;99.90;;;;;;4888056;29;20035;-90